sensor_id;sensor_type;location;lat;lon;timestamp;pressure;altitude;pressure_sealevel;temperature;humidity
78309;BME280;67566;42.022;21.356;2023-07-02T00:01:20;98023.38;;;20.27;78.28
78309;BME280;67566;42.022;21.356;2023-07-02T00:03:46;98016.00;;;20.21;78.51
78309;BME280;67566;42.022;21.356;2023-07-02T00:06:11;98007.47;;;20.11;79.45
78309;BME280;67566;42.022;21.356;2023-07-02T00:08:37;97979.63;;;20.07;79.39
78309;BME280;67566;42.022;21.356;2023-07-02T00:11:02;97977.28;;;20.06;78.99
78309;BME280;67566;42.022;21.356;2023-07-02T00:13:28;97992.75;;;20.05;79.67
78309;BME280;67566;42.022;21.356;2023-07-02T00:15:53;97995.81;;;20.04;79.61
78309;BME280;67566;42.022;21.356;2023-07-02T00:18:24;97995.06;;;20.03;79.67
78309;BME280;67566;42.022;21.356;2023-07-02T00:20:54;97990.03;;;20.05;79.04
78309;BME280;67566;42.022;21.356;2023-07-02T00:23:19;97987.34;;;20.05;79.17
78309;BME280;67566;42.022;21.356;2023-07-02T00:25:46;97990.78;;;20.02;79.56
78309;BME280;67566;42.022;21.356;2023-07-02T00:28:11;97980.75;;;19.99;79.28
78309;BME280;67566;42.022;21.356;2023-07-02T00:30:37;97972.59;;;19.95;79.45
78309;BME280;67566;42.022;21.356;2023-07-02T00:33:02;97967.59;;;19.94;80.04
78309;BME280;67566;42.022;21.356;2023-07-02T00:35:28;97968.38;;;19.94;79.33
78309;BME280;67566;42.022;21.356;2023-07-02T00:37:53;97965.28;;;19.96;79.57
78309;BME280;67566;42.022;21.356;2023-07-02T00:40:20;97963.72;;;19.91;79.69
78309;BME280;67566;42.022;21.356;2023-07-02T00:42:45;97979.16;;;19.91;79.19
78309;BME280;67566;42.022;21.356;2023-07-02T00:45:11;97983.41;;;19.92;79.93
78309;BME280;67566;42.022;21.356;2023-07-02T00:47:36;97981.47;;;19.89;79.32
78309;BME280;67566;42.022;21.356;2023-07-02T00:50:02;97978.78;;;19.89;79.82
78309;BME280;67566;42.022;21.356;2023-07-02T00:52:28;97968.31;;;19.84;79.66
78309;BME280;67566;42.022;21.356;2023-07-02T00:54:54;97959.81;;;19.82;79.79
78309;BME280;67566;42.022;21.356;2023-07-02T00:57:19;97955.16;;;19.78;80.09
78309;BME280;67566;42.022;21.356;2023-07-02T00:59:45;97962.47;;;19.78;80.49
78309;BME280;67566;42.022;21.356;2023-07-02T01:02:11;97968.66;;;19.78;80.57
78309;BME280;67566;42.022;21.356;2023-07-02T01:04:38;97989.50;;;19.78;79.85
78309;BME280;67566;42.022;21.356;2023-07-02T01:07:04;97989.50;;;19.78;80.41
78309;BME280;67566;42.022;21.356;2023-07-02T01:09:34;97977.53;;;19.75;80.44
78309;BME280;67566;42.022;21.356;2023-07-02T01:12:03;97954.28;;;19.67;81.04
78309;BME280;67566;42.022;21.356;2023-07-02T01:14:36;97941.47;;;19.57;81.32
78309;BME280;67566;42.022;21.356;2023-07-02T01:17:05;97946.50;;;19.55;81.31
78309;BME280;67566;42.022;21.356;2023-07-02T01:19:45;97946.88;;;19.57;81.24
78309;BME280;67566;42.022;21.356;2023-07-02T01:22:20;97946.50;;;19.58;81.28
78309;BME280;67566;42.022;21.356;2023-07-02T01:24:46;97948.44;;;19.58;81.32
78309;BME280;67566;42.022;21.356;2023-07-02T01:27:13;97963.50;;;19.55;80.64
78309;BME280;67566;42.022;21.356;2023-07-02T01:29:40;97973.78;;;19.42;81.48
78309;BME280;67566;42.022;21.356;2023-07-02T01:32:06;97978.03;;;19.40;81.43
78309;BME280;67566;42.022;21.356;2023-07-02T01:34:31;97988.06;;;19.43;81.53
78309;BME280;67566;42.022;21.356;2023-07-02T01:36:57;97992.34;;;19.48;81.75
78309;BME280;67566;42.022;21.356;2023-07-02T01:39:22;97997.38;;;19.49;81.21
78309;BME280;67566;42.022;21.356;2023-07-02T01:41:53;98003.16;;;19.51;81.33
78309;BME280;67566;42.022;21.356;2023-07-02T01:44:19;98002.81;;;19.53;81.37
78309;BME280;67566;42.022;21.356;2023-07-02T01:46:46;98010.16;;;19.56;81.32
78309;BME280;67566;42.022;21.356;2023-07-02T01:49:18;98005.16;;;19.58;81.11
78309;BME280;67566;42.022;21.356;2023-07-02T01:51:54;98003.59;;;19.57;81.46
78309;BME280;67566;42.022;21.356;2023-07-02T01:54:20;97995.06;;;19.51;81.96
78309;BME280;67566;42.022;21.356;2023-07-02T01:56:46;97983.09;;;19.49;80.96
78309;BME280;67566;42.022;21.356;2023-07-02T01:59:11;97997.41;;;19.53;80.85
78309;BME280;67566;42.022;21.356;2023-07-02T02:01:38;97995.09;;;19.55;81.53
78309;BME280;67566;42.022;21.356;2023-07-02T02:04:08;98003.59;;;19.57;81.17
78309;BME280;67566;42.022;21.356;2023-07-02T02:06:35;97993.19;;;19.55;81.64
78309;BME280;67566;42.022;21.356;2023-07-02T02:09:01;97988.94;;;19.58;81.10
78309;BME280;67566;42.022;21.356;2023-07-02T02:11:37;97980.84;;;19.58;81.04
78309;BME280;67566;42.022;21.356;2023-07-02T02:14:03;97987.81;;;19.59;81.62
78309;BME280;67566;42.022;21.356;2023-07-02T02:16:29;97988.97;;;19.61;81.38
78309;BME280;67566;42.022;21.356;2023-07-02T02:18:55;97997.44;;;19.60;81.36
78309;BME280;67566;42.022;21.356;2023-07-02T02:21:21;97980.84;;;19.58;81.55
78309;BME280;67566;42.022;21.356;2023-07-02T02:23:47;97975.84;;;19.60;81.56
78309;BME280;67566;42.022;21.356;2023-07-02T02:26:13;97971.19;;;19.57;81.32
78309;BME280;67566;42.022;21.356;2023-07-02T02:28:39;97973.53;;;19.58;81.48
78309;BME280;67566;42.022;21.356;2023-07-02T02:31:04;97973.50;;;19.55;81.76
78309;BME280;67566;42.022;21.356;2023-07-02T02:33:30;97961.13;;;19.50;81.17
78309;BME280;67566;42.022;21.356;2023-07-02T02:35:56;97952.19;;;19.42;81.39
78309;BME280;67566;42.022;21.356;2023-07-02T02:38:21;97954.50;;;19.40;80.74
78309;BME280;67566;42.022;21.356;2023-07-02T02:40:46;97955.28;;;19.41;80.57
78309;BME280;67566;42.022;21.356;2023-07-02T02:43:12;97957.22;;;19.44;81.48
78309;BME280;67566;42.022;21.356;2023-07-02T02:45:38;97943.34;;;19.46;81.14
78309;BME280;67566;42.022;21.356;2023-07-02T02:48:04;97935.66;;;19.48;82.11
78309;BME280;67566;42.022;21.356;2023-07-02T02:50:30;97932.56;;;19.49;81.60
78309;BME280;67566;42.022;21.356;2023-07-02T02:52:55;97934.13;;;19.50;81.28
78309;BME280;67566;42.022;21.356;2023-07-02T02:55:21;97935.66;;;19.48;81.87
78309;BME280;67566;42.022;21.356;2023-07-02T02:57:46;97940.28;;;19.47;82.09
78309;BME280;67566;42.022;21.356;2023-07-02T03:00:12;97951.47;;;19.49;82.17
78309;BME280;67566;42.022;21.356;2023-07-02T03:02:38;97958.81;;;19.49;81.74
78309;BME280;67566;42.022;21.356;2023-07-02T03:05:05;97954.91;;;19.46;82.32
78309;BME280;67566;42.022;21.356;2023-07-02T03:07:32;97958.78;;;19.45;82.24
78309;BME280;67566;42.022;21.356;2023-07-02T03:09:58;97963.38;;;19.44;81.44
78309;BME280;67566;42.022;21.356;2023-07-02T03:12:25;97962.63;;;19.44;81.79
78309;BME280;67566;42.022;21.356;2023-07-02T03:14:51;97959.16;;;19.43;81.51
78309;BME280;67566;42.022;21.356;2023-07-02T03:17:23;97946.41;;;19.40;81.53
78309;BME280;67566;42.022;21.356;2023-07-02T03:19:49;97943.69;;;19.37;81.78
78309;BME280;67566;42.022;21.356;2023-07-02T03:22:15;97937.50;;;19.36;81.50
78309;BME280;67566;42.022;21.356;2023-07-02T03:24:40;97934.00;;;19.36;81.88
78309;BME280;67566;42.022;21.356;2023-07-02T03:27:06;97936.31;;;19.30;81.79
78309;BME280;67566;42.022;21.356;2023-07-02T03:29:34;97927.41;;;19.26;81.86
78309;BME280;67566;42.022;21.356;2023-07-02T03:31:59;97928.53;;;19.25;81.34
78309;BME280;67566;42.022;21.356;2023-07-02T03:34:25;97933.16;;;19.21;82.48
78309;BME280;67566;42.022;21.356;2023-07-02T03:36:51;97931.53;;;19.13;82.55
78309;BME280;67566;42.022;21.356;2023-07-02T03:39:16;97945.38;;;19.08;82.75
78309;BME280;67566;42.022;21.356;2023-07-02T03:41:43;97937.28;;;19.08;82.67
78309;BME280;67566;42.022;21.356;2023-07-02T03:44:08;97943.84;;;19.07;82.62
78309;BME280;67566;42.022;21.356;2023-07-02T03:46:34;97946.91;;;19.05;83.19
78309;BME280;67566;42.022;21.356;2023-07-02T03:49:00;97943.00;;;19.02;83.28
78309;BME280;67566;42.022;21.356;2023-07-02T03:51:26;97946.50;;;19.03;82.41
78309;BME280;67566;42.022;21.356;2023-07-02T03:53:51;97947.66;;;19.02;82.95
78309;BME280;67566;42.022;21.356;2023-07-02T03:56:17;97943.38;;;19.01;83.55
78309;BME280;67566;42.022;21.356;2023-07-02T03:58:42;97938.75;;;18.98;82.95
78309;BME280;67566;42.022;21.356;2023-07-02T04:01:08;97946.09;;;19.01;83.64
78309;BME280;67566;42.022;21.356;2023-07-02T04:03:33;97943.81;;;19.03;82.89
78309;BME280;67566;42.022;21.356;2023-07-02T04:05:59;97937.28;;;19.08;83.17
78309;BME280;67566;42.022;21.356;2023-07-02T04:08:25;97950.81;;;19.15;82.29
78309;BME280;67566;42.022;21.356;2023-07-02T04:10:51;97956.25;;;19.18;83.14
78309;BME280;67566;42.022;21.356;2023-07-02T04:13:16;97955.88;;;19.20;82.16
78309;BME280;67566;42.022;21.356;2023-07-02T04:15:42;97966.72;;;19.27;82.49
78309;BME280;67566;42.022;21.356;2023-07-02T04:18:07;97969.09;;;19.32;82.84
78309;BME280;67566;42.022;21.356;2023-07-02T04:20:33;97978.00;;;19.36;82.75
78309;BME280;67566;42.022;21.356;2023-07-02T04:22:59;97976.06;;;19.37;83.00
78309;BME280;67566;42.022;21.356;2023-07-02T04:25:24;97975.69;;;19.38;82.64
78309;BME280;67566;42.022;21.356;2023-07-02T04:27:50;97985.34;;;19.43;82.95
78309;BME280;67566;42.022;21.356;2023-07-02T04:30:16;97987.69;;;19.44;82.56
78309;BME280;67566;42.022;21.356;2023-07-02T04:32:41;97990.38;;;19.44;82.08
78309;BME280;67566;42.022;21.356;2023-07-02T04:35:08;97986.94;;;19.44;82.32
78309;BME280;67566;42.022;21.356;2023-07-02T04:37:35;97987.69;;;19.44;82.08
78309;BME280;67566;42.022;21.356;2023-07-02T04:40:01;97989.25;;;19.46;81.45
78309;BME280;67566;42.022;21.356;2023-07-02T04:42:27;97993.91;;;19.49;81.19
78309;BME280;67566;42.022;21.356;2023-07-02T04:44:55;97997.78;;;19.51;82.20
78309;BME280;67566;42.022;21.356;2023-07-02T04:47:21;97997.44;;;19.56;82.58
78309;BME280;67566;42.022;21.356;2023-07-02T04:49:46;98005.94;;;19.62;82.37
78309;BME280;67566;42.022;21.356;2023-07-02T04:52:12;98007.91;;;19.65;81.87
78309;BME280;67566;42.022;21.356;2023-07-02T04:54:37;98003.69;;;19.68;82.33
78309;BME280;67566;42.022;21.356;2023-07-02T04:57:03;98012.19;;;19.70;82.00
78309;BME280;67566;42.022;21.356;2023-07-02T04:59:29;98012.59;;;19.72;81.65
78309;BME280;67566;42.022;21.356;2023-07-02T05:01:54;98014.53;;;19.71;81.61
78309;BME280;67566;42.022;21.356;2023-07-02T05:04:20;98019.50;;;19.69;81.05
78309;BME280;67566;42.022;21.356;2023-07-02T05:06:45;98017.53;;;19.59;81.70
78309;BME280;67566;42.022;21.356;2023-07-02T05:09:11;98018.25;;;19.56;81.53
78309;BME280;67566;42.022;21.356;2023-07-02T05:11:36;98020.59;;;19.57;81.99
78309;BME280;67566;42.022;21.356;2023-07-02T05:14:02;98009.88;;;19.68;82.08
78309;BME280;67566;42.022;21.356;2023-07-02T05:16:28;98013.13;;;19.92;81.48
78309;BME280;67566;42.022;21.356;2023-07-02T05:18:53;98008.56;;;20.03;80.64
78309;BME280;67566;42.022;21.356;2023-07-02T05:21:19;98011.66;;;20.05;80.63
78309;BME280;67566;42.022;21.356;2023-07-02T05:23:44;98014.31;;;19.94;80.63
78309;BME280;67566;42.022;21.356;2023-07-02T05:26:10;98003.47;;;19.87;80.64
78309;BME280;67566;42.022;21.356;2023-07-02T05:28:36;98006.13;;;19.84;80.14
78309;BME280;67566;42.022;21.356;2023-07-02T05:31:01;98009.63;;;19.88;80.51
78309;BME280;67566;42.022;21.356;2023-07-02T05:33:27;98005.78;;;19.89;80.16
78309;BME280;67566;42.022;21.356;2023-07-02T05:35:52;98009.28;;;19.93;80.00
78309;BME280;67566;42.022;21.356;2023-07-02T05:38:18;98008.59;;;20.10;80.52
78309;BME280;67566;42.022;21.356;2023-07-02T05:40:44;98005.50;;;20.08;80.05
78309;BME280;67566;42.022;21.356;2023-07-02T05:43:10;98008.59;;;20.10;79.25
78309;BME280;67566;42.022;21.356;2023-07-02T05:45:35;97999.38;;;20.18;79.45
78309;BME280;67566;42.022;21.356;2023-07-02T05:48:01;98010.97;;;20.23;77.69
78309;BME280;67566;42.022;21.356;2023-07-02T05:50:26;98005.94;;;20.21;78.51
78309;BME280;67566;42.022;21.356;2023-07-02T05:52:52;98002.84;;;20.19;77.98
78309;BME280;67566;42.022;21.356;2023-07-02T05:55:17;98009.84;;;20.27;77.29
78309;BME280;67566;42.022;21.356;2023-07-02T05:57:43;98006.00;;;20.35;77.97
78309;BME280;67566;42.022;21.356;2023-07-02T06:00:09;98003.38;;;20.50;77.80
78309;BME280;67566;42.022;21.356;2023-07-02T06:02:34;98000.00;;;20.82;77.48
78309;BME280;67566;42.022;21.356;2023-07-02T06:05:00;98004.69;;;21.10;76.16
78309;BME280;67566;42.022;21.356;2023-07-02T06:07:27;98007.03;;;21.33;75.43
78309;BME280;67566;42.022;21.356;2023-07-02T06:09:53;98010.53;;;21.55;75.04
78309;BME280;67566;42.022;21.356;2023-07-02T06:12:20;98007.81;;;21.66;73.36
78309;BME280;67566;42.022;21.356;2023-07-02T06:14:46;98019.00;;;21.82;72.20
78309;BME280;67566;42.022;21.356;2023-07-02T06:17:11;98019.78;;;21.86;73.49
78309;BME280;67566;42.022;21.356;2023-07-02T06:19:37;98014.72;;;22.06;72.54
78309;BME280;67566;42.022;21.356;2023-07-02T06:22:03;98011.16;;;22.31;72.55
78309;BME280;67566;42.022;21.356;2023-07-02T06:24:29;98010.31;;;22.52;71.62
78309;BME280;67566;42.022;21.356;2023-07-02T06:26:55;98005.22;;;22.69;71.40
78309;BME280;67566;42.022;21.356;2023-07-02T06:29:22;98005.16;;;22.79;70.53
78309;BME280;67566;42.022;21.356;2023-07-02T06:31:48;98002.50;;;22.69;70.31
78309;BME280;67566;42.022;21.356;2023-07-02T06:34:14;98006.34;;;22.71;69.16
78309;BME280;67566;42.022;21.356;2023-07-02T06:36:40;98005.84;;;22.91;68.77
78309;BME280;67566;42.022;21.356;2023-07-02T06:39:05;98005.78;;;23.02;67.29
78309;BME280;67566;42.022;21.356;2023-07-02T06:41:31;98008.88;;;23.07;66.82
78309;BME280;67566;42.022;21.356;2023-07-02T06:43:56;98004.63;;;22.99;66.61
78309;BME280;67566;42.022;21.356;2023-07-02T06:46:22;98008.47;;;23.09;67.15
78309;BME280;67566;42.022;21.356;2023-07-02T06:48:47;98009.97;;;23.21;66.88
78309;BME280;67566;42.022;21.356;2023-07-02T06:51:13;98002.50;;;23.32;67.16
78309;BME280;67566;42.022;21.356;2023-07-02T06:53:41;97999.91;;;23.14;65.11
78309;BME280;67566;42.022;21.356;2023-07-02T06:56:10;98004.88;;;23.26;66.63
78309;BME280;67566;42.022;21.356;2023-07-02T06:58:35;97992.69;;;23.45;66.77
78309;BME280;67566;42.022;21.356;2023-07-02T07:01:01;98002.97;;;23.68;65.88
78309;BME280;67566;42.022;21.356;2023-07-02T07:03:27;97991.13;;;23.89;65.17
78309;BME280;67566;42.022;21.356;2023-07-02T07:05:53;97984.00;;;24.03;64.43
78309;BME280;67566;42.022;21.356;2023-07-02T07:08:18;97991.22;;;24.17;63.80
78309;BME280;67566;42.022;21.356;2023-07-02T07:10:44;97999.28;;;23.89;64.57
78309;BME280;67566;42.022;21.356;2023-07-02T07:13:11;97993.72;;;24.00;63.70
78309;BME280;67566;42.022;21.356;2023-07-02T07:15:37;97989.00;;;24.08;64.45
78309;BME280;67566;42.022;21.356;2023-07-02T07:18:03;97995.56;;;24.10;63.57
78309;BME280;67566;42.022;21.356;2023-07-02T07:20:29;97987.63;;;24.23;62.52
78309;BME280;67566;42.022;21.356;2023-07-02T07:22:55;97994.28;;;24.22;62.04
78309;BME280;67566;42.022;21.356;2023-07-02T07:25:21;98000.56;;;24.16;62.45
78309;BME280;67566;42.022;21.356;2023-07-02T07:27:47;97994.53;;;23.97;62.48
78309;BME280;67566;42.022;21.356;2023-07-02T07:30:12;98000.50;;;24.19;63.04
78309;BME280;67566;42.022;21.356;2023-07-02T07:32:42;97992.84;;;24.10;63.65
78309;BME280;67566;42.022;21.356;2023-07-02T07:35:08;97998.97;;;23.84;63.13
78309;BME280;67566;42.022;21.356;2023-07-02T07:37:33;97982.31;;;23.74;63.26
78309;BME280;67566;42.022;21.356;2023-07-02T07:40:03;97993.47;;;24.22;63.50
78309;BME280;67566;42.022;21.356;2023-07-02T07:42:31;97989.03;;;24.69;62.98
78309;BME280;67566;42.022;21.356;2023-07-02T07:44:56;97986.97;;;25.04;62.24
78309;BME280;67566;42.022;21.356;2023-07-02T07:47:22;97995.91;;;25.32;61.87
78309;BME280;67566;42.022;21.356;2023-07-02T07:49:47;97989.16;;;25.40;60.78
78309;BME280;67566;42.022;21.356;2023-07-02T07:52:13;97981.44;;;25.59;60.80
78309;BME280;67566;42.022;21.356;2023-07-02T07:54:38;97979.81;;;25.61;59.28
78309;BME280;67566;42.022;21.356;2023-07-02T07:57:04;97977.81;;;25.66;60.60
78309;BME280;67566;42.022;21.356;2023-07-02T07:59:30;97983.28;;;25.66;60.26
78309;BME280;67566;42.022;21.356;2023-07-02T08:01:55;97973.63;;;25.61;58.73
78309;BME280;67566;42.022;21.356;2023-07-02T08:04:21;97985.06;;;25.52;57.82
78309;BME280;67566;42.022;21.356;2023-07-02T08:06:46;97988.03;;;25.38;58.32
78309;BME280;67566;42.022;21.356;2023-07-02T08:09:12;97988.66;;;25.22;60.15
78309;BME280;67566;42.022;21.356;2023-07-02T08:11:37;97982.66;;;25.34;59.20
78309;BME280;67566;42.022;21.356;2023-07-02T08:14:03;97984.72;;;24.99;60.17
78309;BME280;67566;42.022;21.356;2023-07-02T08:16:29;97980.19;;;24.89;61.02
78309;BME280;67566;42.022;21.356;2023-07-02T08:18:54;97987.50;;;25.19;60.64
78309;BME280;67566;42.022;21.356;2023-07-02T08:21:20;97981.25;;;25.22;59.47
78309;BME280;67566;42.022;21.356;2023-07-02T08:23:45;97982.28;;;25.05;59.21
78309;BME280;67566;42.022;21.356;2023-07-02T08:26:11;97985.94;;;25.22;58.87
78309;BME280;67566;42.022;21.356;2023-07-02T08:28:37;97983.56;;;25.24;58.34
78309;BME280;67566;42.022;21.356;2023-07-02T08:31:06;97981.16;;;25.30;58.42
78309;BME280;67566;42.022;21.356;2023-07-02T08:33:34;97990.22;;;25.47;59.88
78309;BME280;67566;42.022;21.356;2023-07-02T08:36:03;97977.56;;;25.56;58.17
78309;BME280;67566;42.022;21.356;2023-07-02T08:38:28;97983.72;;;25.84;58.70
78309;BME280;67566;42.022;21.356;2023-07-02T08:40:54;97986.38;;;25.88;57.14
78309;BME280;67566;42.022;21.356;2023-07-02T08:43:19;97986.00;;;26.09;57.82
78309;BME280;67566;42.022;21.356;2023-07-02T08:45:45;97982.09;;;26.30;56.18
78309;BME280;67566;42.022;21.356;2023-07-02T08:48:11;97979.56;;;26.56;56.65
78309;BME280;67566;42.022;21.356;2023-07-02T08:50:36;97976.50;;;26.74;56.64
78309;BME280;67566;42.022;21.356;2023-07-02T08:53:02;97976.84;;;26.76;55.64
78309;BME280;67566;42.022;21.356;2023-07-02T08:55:28;97980.44;;;26.89;55.37
78309;BME280;67566;42.022;21.356;2023-07-02T08:57:56;97973.59;;;26.98;55.34
78309;BME280;67566;42.022;21.356;2023-07-02T09:00:27;97968.84;;;27.18;54.95
78309;BME280;67566;42.022;21.356;2023-07-02T09:02:56;97973.03;;;27.23;54.33
78309;BME280;67566;42.022;21.356;2023-07-02T09:05:21;97968.50;;;27.33;54.65
78309;BME280;67566;42.022;21.356;2023-07-02T09:07:48;97971.41;;;27.42;54.48
78309;BME280;67566;42.022;21.356;2023-07-02T09:10:32;97964.88;;;27.52;54.06
78309;BME280;67566;42.022;21.356;2023-07-02T09:13:07;97972.47;;;27.61;53.85
78309;BME280;67566;42.022;21.356;2023-07-02T09:15:38;97963.41;;;27.64;52.82
78309;BME280;67566;42.022;21.356;2023-07-02T09:18:24;97961.38;;;27.68;52.74
78309;BME280;67566;42.022;21.356;2023-07-02T09:20:56;97966.56;;;27.79;52.27
78309;BME280;67566;42.022;21.356;2023-07-02T09:23:21;97965.00;;;27.94;52.20
78309;BME280;67566;42.022;21.356;2023-07-02T09:25:47;97964.59;;;28.09;51.71
78309;BME280;67566;42.022;21.356;2023-07-02T09:28:17;97957.38;;;28.15;51.98
78309;BME280;67566;42.022;21.356;2023-07-02T09:30:56;97954.31;;;28.25;51.98
78309;BME280;67566;42.022;21.356;2023-07-02T09:33:26;97958.63;;;28.39;51.12
78309;BME280;67566;42.022;21.356;2023-07-02T09:35:52;97957.97;;;28.48;50.23
78309;BME280;67566;42.022;21.356;2023-07-02T09:38:19;97954.31;;;28.68;50.45
78309;BME280;67566;42.022;21.356;2023-07-02T09:40:47;97948.16;;;28.76;50.05
78309;BME280;67566;42.022;21.356;2023-07-02T09:43:16;97939.16;;;28.89;49.04
78309;BME280;67566;42.022;21.356;2023-07-02T09:45:54;97947.28;;;28.92;48.54
78309;BME280;67566;42.022;21.356;2023-07-02T09:48:24;97942.75;;;29.11;48.91
78309;BME280;67566;42.022;21.356;2023-07-02T09:50:54;97950.53;;;29.26;48.72
78309;BME280;67566;42.022;21.356;2023-07-02T09:53:20;97944.81;;;29.33;47.87
78309;BME280;67566;42.022;21.356;2023-07-02T09:55:45;97949.03;;;28.99;48.18
78309;BME280;67566;42.022;21.356;2023-07-02T09:58:11;97944.84;;;28.94;48.48
78309;BME280;67566;42.022;21.356;2023-07-02T10:00:41;97937.72;;;28.97;48.09
78309;BME280;67566;42.022;21.356;2023-07-02T10:03:07;97936.84;;;29.00;47.83
78309;BME280;67566;42.022;21.356;2023-07-02T10:05:35;97937.09;;;28.80;48.90
78309;BME280;67566;42.022;21.356;2023-07-02T10:08:14;97932.91;;;28.75;48.13
78309;BME280;67566;42.022;21.356;2023-07-02T10:10:42;97931.06;;;28.85;48.97
78309;BME280;67566;42.022;21.356;2023-07-02T10:13:07;97927.78;;;29.38;48.41
78309;BME280;67566;42.022;21.356;2023-07-02T10:15:33;97936.97;;;29.44;47.86
78309;BME280;67566;42.022;21.356;2023-07-02T10:18:02;97932.53;;;29.25;46.19
78309;BME280;67566;42.022;21.356;2023-07-02T10:20:32;97934.19;;;29.22;47.32
78309;BME280;67566;42.022;21.356;2023-07-02T10:23:02;97932.00;;;29.04;47.60
78309;BME280;67566;42.022;21.356;2023-07-02T10:27:55;97928.53;;;29.16;46.59
78309;BME280;67566;42.022;21.356;2023-07-02T10:30:31;97927.81;;;29.12;47.03
78309;BME280;67566;42.022;21.356;2023-07-02T10:33:16;97912.53;;;29.37;46.14
78309;BME280;67566;42.022;21.356;2023-07-02T10:35:47;97909.09;;;29.24;45.90
78309;BME280;67566;42.022;21.356;2023-07-02T10:38:22;97903.25;;;29.22;45.23
78309;BME280;67566;42.022;21.356;2023-07-02T10:40:56;97910.06;;;29.52;46.08
78309;BME280;67566;42.022;21.356;2023-07-02T10:43:30;97905.88;;;29.60;45.52
78309;BME280;67566;42.022;21.356;2023-07-02T10:45:56;97909.88;;;29.81;44.60
78309;BME280;67566;42.022;21.356;2023-07-02T10:48:22;97904.91;;;29.98;44.36
78309;BME280;67566;42.022;21.356;2023-07-02T10:50:47;97905.47;;;30.15;44.84
78309;BME280;67566;42.022;21.356;2023-07-02T10:53:17;97907.00;;;30.16;44.92
78309;BME280;67566;42.022;21.356;2023-07-02T10:55:43;97896.25;;;30.31;44.36
78309;BME280;67566;42.022;21.356;2023-07-02T10:58:09;97902.44;;;30.44;44.08
78309;BME280;67566;42.022;21.356;2023-07-02T11:00:44;97888.69;;;30.44;43.27
78309;BME280;67566;42.022;21.356;2023-07-02T11:03:17;97895.13;;;30.50;42.72
78309;BME280;67566;42.022;21.356;2023-07-02T11:05:44;97899.72;;;30.54;43.37
78309;BME280;67566;42.022;21.356;2023-07-02T11:08:10;97889.97;;;30.62;43.06
78309;BME280;67566;42.022;21.356;2023-07-02T11:10:36;97889.06;;;30.65;43.17
78309;BME280;67566;42.022;21.356;2023-07-02T11:13:17;97888.19;;;30.77;43.67
78309;BME280;67566;42.022;21.356;2023-07-02T11:15:44;97889.25;;;30.80;43.27
78309;BME280;67566;42.022;21.356;2023-07-02T11:18:17;97887.31;;;30.90;43.12
78309;BME280;67566;42.022;21.356;2023-07-02T11:20:44;97883.16;;;30.85;42.76
78309;BME280;67566;42.022;21.356;2023-07-02T11:23:24;97875.81;;;30.73;41.76
78309;BME280;67566;42.022;21.356;2023-07-02T11:25:59;97873.00;;;30.54;41.76
78309;BME280;67566;42.022;21.356;2023-07-02T11:28:26;97864.88;;;30.41;41.77
78309;BME280;67566;42.022;21.356;2023-07-02T11:30:52;97866.44;;;30.52;42.04
78309;BME280;67566;42.022;21.356;2023-07-02T11:33:34;97860.03;;;30.55;41.52
78309;BME280;67566;42.022;21.356;2023-07-02T11:36:00;97866.47;;;30.70;42.41
78309;BME280;67566;42.022;21.356;2023-07-02T11:38:26;97863.25;;;30.53;41.40
78309;BME280;67566;42.022;21.356;2023-07-02T11:40:51;97856.88;;;30.65;42.71
78309;BME280;67566;42.022;21.356;2023-07-02T11:43:17;97860.06;;;30.64;41.26
78309;BME280;67566;42.022;21.356;2023-07-02T11:45:43;97861.91;;;30.76;41.73
78309;BME280;67566;42.022;21.356;2023-07-02T11:48:11;97850.50;;;30.96;41.92
78309;BME280;67566;42.022;21.356;2023-07-02T11:50:37;97849.91;;;31.20;42.03
78309;BME280;67566;42.022;21.356;2023-07-02T11:53:03;97849.16;;;31.38;41.56
78309;BME280;67566;42.022;21.356;2023-07-02T11:55:28;97844.88;;;31.37;41.27
78309;BME280;67566;42.022;21.356;2023-07-02T11:57:54;97843.94;;;31.40;42.01
78309;BME280;67566;42.022;21.356;2023-07-02T12:00:19;97841.53;;;31.51;41.40
78309;BME280;67566;42.022;21.356;2023-07-02T12:02:45;97843.47;;;31.69;40.88
78309;BME280;67566;42.022;21.356;2023-07-02T12:05:11;97844.53;;;31.81;40.58
78309;BME280;67566;42.022;21.356;2023-07-02T12:07:36;97846.53;;;31.80;39.33
78309;BME280;67566;42.022;21.356;2023-07-02T12:10:10;97848.38;;;31.65;39.18
78309;BME280;67566;42.022;21.356;2023-07-02T12:12:36;97847.75;;;31.61;39.47
78309;BME280;67566;42.022;21.356;2023-07-02T12:15:02;97836.91;;;31.57;39.77
78309;BME280;67566;42.022;21.356;2023-07-02T12:17:27;97840.28;;;31.34;40.61
78309;BME280;67566;42.022;21.356;2023-07-02T12:19:53;97842.84;;;30.82;41.61
78309;BME280;67566;42.022;21.356;2023-07-02T12:22:18;97843.69;;;30.51;42.33
78309;BME280;67566;42.022;21.356;2023-07-02T12:24:47;97842.31;;;30.15;42.61
78309;BME280;67566;42.022;21.356;2023-07-02T12:27:12;97835.84;;;30.00;43.10
78309;BME280;67566;42.022;21.356;2023-07-02T12:29:38;97833.34;;;29.83;43.07
78309;BME280;67566;42.022;21.356;2023-07-02T12:32:03;97832.81;;;29.75;44.04
78309;BME280;67566;42.022;21.356;2023-07-02T12:34:31;97831.53;;;29.67;43.90
78309;BME280;67566;42.022;21.356;2023-07-02T12:36:56;97834.66;;;29.56;44.03
78309;BME280;67566;42.022;21.356;2023-07-02T12:39:22;97820.13;;;29.47;44.24
78309;BME280;67566;42.022;21.356;2023-07-02T12:41:47;97826.06;;;29.45;44.35
78309;BME280;67566;42.022;21.356;2023-07-02T12:44:13;97820.84;;;29.38;44.94
78309;BME280;67566;42.022;21.356;2023-07-02T12:46:38;97819.41;;;29.33;45.61
78309;BME280;67566;42.022;21.356;2023-07-02T12:49:04;97826.16;;;29.19;45.42
78309;BME280;67566;42.022;21.356;2023-07-02T12:51:29;97834.63;;;29.12;44.36